Time;durP1;ratioP1;P1;durP2;ratioP2;P2;SDS_P1;SDS_P2;PMS_P1;PMS_P2;Temp;Humidity;BMP_temperature;BMP_pressure;BME280_temperature;BME280_humidity;BME280_pressure;Samples;Min_cycle;Max_cycle;Signal;HPM_P1;HPM_P2
2022/11/08 00:01:48;;;;;;;10.20;3.40;;;15.80;91.30;;;;;;5007840;28;20206;-94
2022/11/08 00:04:17;;;;;;;10.23;3.47;;;15.80;91.20;;;;;;5025104;28;20258;-92
2022/11/08 00:15:26;;;;;;;8.10;3.13;;;15.90;91.30;;;;;;5030370;28;20212;-93
2022/11/08 00:18:01;;;;;;;9.27;3.37;;;15.90;91.20;;;;;;5038858;28;20213;-91
2022/11/08 00:20:34;;;;;;;12.77;3.87;;;15.90;91.10;;;;;;5020401;28;20665;-92
2022/11/08 00:23:04;;;;;;;8.13;3.23;;;15.90;91.10;;;;;;5019742;28;20200;-93
2022/11/08 00:25:42;;;;;;;10.23;3.97;;;15.90;91.10;;;;;;5020789;28;20196;-93
2022/11/08 00:28:13;;;;;;;7.60;2.97;;;16.00;91.00;;;;;;5017264;28;20209;-92
2022/11/08 00:30:42;;;;;;;10.87;3.63;;;16.00;91.00;;;;;;5006557;28;20221;-92
2022/11/08 00:33:11;;;;;;;12.70;3.10;;;16.00;90.90;;;;;;5024684;28;20237;-93
2022/11/08 00:35:44;;;;;;;11.57;3.73;;;16.00;90.90;;;;;;5030220;28;20225;-93
2022/11/08 00:38:26;;;;;;;6.83;2.87;;;16.00;90.80;;;;;;5038957;28;20220;-93
2022/11/08 00:41:05;;;;;;;8.67;3.03;;;16.00;90.70;;;;;;5037561;28;20261;-92
2022/11/08 00:43:47;;;;;;;10.07;3.53;;;16.00;90.60;;;;;;5036103;28;20193;-92
2022/11/08 00:46:15;;;;;;;11.63;3.60;;;16.00;90.60;;;;;;5039920;28;20211;-91
2022/11/08 00:48:45;;;;;;;8.00;3.13;;;16.00;90.60;;;;;;5026866;28;20204;-94
2022/11/08 00:51:25;;;;;;;7.80;2.87;;;16.00;90.40;;;;;;5036915;28;20241;-92
2022/11/08 00:54:03;;;;;;;7.37;3.13;;;16.00;90.40;;;;;;5022087;28;20186;-93
2022/11/08 00:56:35;;;;;;;11.50;3.70;;;16.00;90.20;;;;;;5038676;28;20181;-93
2022/11/08 00:59:12;;;;;;;11.47;4.10;;;16.00;90.20;;;;;;5024970;28;20187;-93
2022/11/08 01:02:42;;;;;;;7.47;2.93;;;16.00;90.20;;;;;;5025898;28;20192;-93
2022/11/08 01:05:20;;;;;;;8.47;3.60;;;16.00;90.20;;;;;;5019538;28;20207;-94
2022/11/08 01:07:50;;;;;;;12.50;4.50;;;15.90;90.20;;;;;;5019448;28;20219;-92
2022/11/08 01:10:19;;;;;;;10.37;3.90;;;15.90;90.20;;;;;;5007698;28;20229;-92
2022/11/08 01:12:48;;;;;;;13.60;4.60;;;15.90;90.10;;;;;;5014399;28;20269;-93
2022/11/08 01:15:23;;;;;;;11.33;4.13;;;15.90;90.20;;;;;;5018192;28;20208;-93
2022/11/08 01:17:51;;;;;;;8.47;3.00;;;15.80;90.10;;;;;;5014461;28;20215;-94
2022/11/08 01:20:21;;;;;;;9.40;3.40;;;15.80;90.10;;;;;;5016643;28;20208;-94
2022/11/08 01:25:37;;;;;;;14.10;4.77;;;15.80;90.10;;;;;;5008897;28;20679;-92
2022/11/08 01:28:04;;;;;;;12.73;3.73;;;15.80;90.10;;;;;;5018007;28;20626;-93
2022/11/08 01:30:39;;;;;;;10.37;3.83;;;15.70;90.20;;;;;;5014897;28;20229;-93
2022/11/08 01:33:10;;;;;;;9.00;3.50;;;15.70;90.30;;;;;;5018681;28;20287;-94
2022/11/08 01:35:46;;;;;;;10.20;3.43;;;15.70;90.40;;;;;;5013313;28;20252;-93
2022/11/08 01:38:15;;;;;;;11.13;3.53;;;15.70;90.40;;;;;;5026464;28;20205;-94
2022/11/08 01:40:56;;;;;;;10.73;3.03;;;15.70;90.40;;;;;;5026031;28;20240;-92
2022/11/08 01:43:41;;;;;;;5.50;2.47;;;15.70;90.40;;;;;;5028452;28;20279;-93
2022/11/08 01:46:59;;;;;;;13.57;4.17;;;15.70;90.80;;;;;;5030486;28;20205;-94
2022/11/08 01:49:42;;;;;;;7.57;3.43;;;15.70;90.50;;;;;;4998819;28;20210;-93
2022/11/08 01:52:40;;;;;;;10.20;3.13;;;15.60;90.50;;;;;;5025755;28;20237;-93
2022/11/08 01:55:14;;;;;;;9.13;3.83;;;15.60;90.60;;;;;;5021714;28;20230;-94
2022/11/08 01:57:47;;;;;;;12.03;3.83;;;15.60;90.60;;;;;;5017654;28;20286;-92
2022/11/08 02:00:17;;;;;;;8.00;2.90;;;15.60;90.60;;;;;;5018943;28;20327;-93
2022/11/08 02:02:51;;;;;;;8.90;3.13;;;15.60;90.70;;;;;;5014497;28;20201;-94
2022/11/08 02:05:27;;;;;;;13.50;4.00;;;15.60;90.80;;;;;;5019165;28;20197;-92
2022/11/08 02:08:01;;;;;;;9.57;3.47;;;15.60;90.80;;;;;;5015984;28;20217;-93
2022/11/08 02:10:40;;;;;;;7.73;2.73;;;15.60;90.80;;;;;;5018925;28;20256;-92
2022/11/08 02:13:24;;;;;;;14.17;4.00;;;15.60;90.90;;;;;;5004420;28;20234;-93
2022/11/08 02:16:00;;;;;;;9.57;3.47;;;15.60;90.90;;;;;;5004083;28;20271;-93
2022/11/08 02:18:35;;;;;;;7.53;3.03;;;15.60;90.80;;;;;;5016517;28;20207;-91
2022/11/08 02:21:10;;;;;;;9.17;3.00;;;15.60;90.80;;;;;;5017630;28;20209;-94
2022/11/08 02:23:58;;;;;;;12.93;4.17;;;15.60;90.90;;;;;;5009301;28;20216;-95
2022/11/08 02:26:30;;;;;;;9.73;2.87;;;15.60;90.80;;;;;;5001820;28;20204;-92
2022/11/08 02:29:00;;;;;;;8.80;2.67;;;15.60;90.80;;;;;;5008991;28;20227;-91
2022/11/08 02:31:29;;;;;;;11.00;3.13;;;15.60;90.80;;;;;;5018513;28;20228;-93
2022/11/08 02:34:01;;;;;;;8.50;3.13;;;15.60;90.80;;;;;;5011513;28;20615;-93
2022/11/08 02:36:32;;;;;;;7.60;3.00;;;15.60;90.80;;;;;;4999232;28;20210;-92
2022/11/08 02:39:04;;;;;;;11.60;3.00;;;15.60;90.70;;;;;;5007688;28;20213;-92
2022/11/08 02:41:32;;;;;;;8.27;2.87;;;15.60;90.60;;;;;;5015895;28;20214;-91
2022/11/08 02:44:09;;;;;;;7.57;3.13;;;15.60;90.60;;;;;;5016063;28;20219;-93
2022/11/08 02:46:51;;;;;;;10.80;3.93;;;15.60;90.60;;;;;;5030487;28;20267;-92
2022/11/08 02:49:22;;;;;;;10.73;3.60;;;15.60;90.60;;;;;;5018878;28;20229;-93
2022/11/08 02:51:56;;;;;;;10.80;3.53;;;15.60;90.40;;;;;;5017192;28;20305;-93
2022/11/08 02:54:30;;;;;;;8.53;2.50;;;15.50;90.40;;;;;;5017484;28;20216;-94
2022/11/08 02:56:59;;;;;;;11.93;3.67;;;15.60;90.40;;;;;;5014975;28;20201;-93
2022/11/08 02:59:37;;;;;;;11.10;3.57;;;15.50;90.30;;;;;;5016633;28;20209;-92
2022/11/08 03:02:08;;;;;;;9.97;3.80;;;15.60;90.30;;;;;;5022850;28;20218;-93
2022/11/08 03:04:54;;;;;;;9.70;3.67;;;15.60;90.20;;;;;;5016168;28;20201;-94
2022/11/08 03:07:30;;;;;;;6.97;2.77;;;15.60;90.00;;;;;;5006218;28;20270;-94
2022/11/08 03:10:00;;;;;;;8.67;3.07;;;15.60;90.00;;;;;;5012652;28;20236;-94
2022/11/08 03:12:29;;;;;;;11.60;3.63;;;15.60;90.00;;;;;;5017483;28;20241;-94
2022/11/08 03:14:59;;;;;;;8.10;3.17;;;15.50;89.80;;;;;;5015042;28;20217;-95
2022/11/08 03:17:31;;;;;;;10.33;3.90;;;15.60;89.80;;;;;;5014196;28;20229;-94
2022/11/08 03:20:01;;;;;;;7.60;3.37;;;15.60;89.90;;;;;;5001739;28;20265;-94
2022/11/08 03:22:35;;;;;;;9.43;3.60;;;15.50;89.70;;;;;;5013936;28;20574;-93
2022/11/08 03:25:09;;;;;;;12.63;4.13;;;15.50;89.50;;;;;;5005084;28;20208;-94
2022/11/08 03:27:40;;;;;;;12.23;4.40;;;15.50;89.00;;;;;;5013653;28;20232;-93
2022/11/08 03:30:13;;;;;;;8.00;3.07;;;15.50;89.10;;;;;;5018772;28;20545;-94
2022/11/08 03:32:44;;;;;;;7.73;3.27;;;15.50;88.90;;;;;;5020161;28;20243;-93
2022/11/08 03:35:11;;;;;;;9.43;3.20;;;15.50;89.00;;;;;;5022382;28;20205;-93
2022/11/08 03:37:49;;;;;;;9.83;2.97;;;15.50;88.90;;;;;;5023683;28;20209;-95
2022/11/08 03:40:29;;;;;;;12.67;4.30;;;15.50;88.90;;;;;;5020577;28;20242;-94
2022/11/08 03:43:05;;;;;;;11.47;3.97;;;15.40;89.20;;;;;;5028568;28;20244;-94
2022/11/08 03:45:36;;;;;;;5.70;2.57;;;15.40;88.40;;;;;;5026844;28;20231;-93
2022/11/08 03:48:18;;;;;;;12.03;2.80;;;15.40;88.40;;;;;;5021700;28;20261;-94
2022/11/08 03:50:46;;;;;;;6.93;2.60;;;15.40;88.20;;;;;;5030437;28;20201;-90
2022/11/08 03:53:45;;;;;;;9.47;3.27;;;15.40;88.50;;;;;;5029258;28;20758;-94
2022/11/08 03:56:26;;;;;;;9.17;2.77;;;15.40;88.20;;;;;;5028849;28;20192;-92
2022/11/08 03:59:01;;;;;;;11.37;3.60;;;15.40;88.20;;;;;;5014803;28;20260;-94
2022/11/08 04:01:38;;;;;;;4.77;2.10;;;15.30;88.00;;;;;;5019660;28;20383;-92
2022/11/08 04:04:06;;;;;;;9.27;3.47;;;15.30;87.70;;;;;;5010030;28;20233;-93
2022/11/08 04:06:38;;;;;;;9.47;3.10;;;15.30;87.90;;;;;;5010569;28;20296;-94
2022/11/08 04:09:05;;;;;;;9.93;3.80;;;15.30;87.70;;;;;;5016951;28;20323;-93
2022/11/08 04:17:15;;;;;;;12.50;4.27;;;15.20;88.00;;;;;;5002887;28;20677;-95
2022/11/08 04:22:38;;;;;;;9.80;3.73;;;15.20;87.50;;;;;;5016947;28;20220;-93
2022/11/08 04:25:08;;;;;;;10.23;3.90;;;15.20;87.40;;;;;;5014474;28;20235;-94
2022/11/08 04:27:39;;;;;;;11.10;3.70;;;15.20;87.40;;;;;;5015178;28;20316;-93
2022/11/08 04:30:08;;;;;;;12.40;4.60;;;15.20;87.30;;;;;;5004610;28;20200;-91
2022/11/08 04:32:40;;;;;;;13.43;4.90;;;15.20;87.10;;;;;;5018076;28;20239;-93
2022/11/08 04:35:13;;;;;;;12.23;3.97;;;15.10;86.70;;;;;;5010544;28;20656;-94
2022/11/08 04:37:42;;;;;;;10.60;4.27;;;15.20;86.40;;;;;;5018282;28;20209;-92
2022/11/08 04:40:11;;;;;;;6.77;2.70;;;15.20;86.60;;;;;;5029002;28;20207;-92
2022/11/08 04:42:44;;;;;;;8.43;3.30;;;15.10;86.80;;;;;;5017562;28;20232;-94
2022/11/08 04:45:12;;;;;;;10.20;3.67;;;15.10;86.20;;;;;;5016310;28;20202;-93
2022/11/08 04:47:44;;;;;;;9.40;2.97;;;15.20;86.30;;;;;;5017262;28;20208;-90
2022/11/08 04:50:14;;;;;;;12.00;4.03;;;15.10;86.00;;;;;;5035765;28;20217;-93
2022/11/08 04:52:43;;;;;;;8.73;3.33;;;15.10;86.60;;;;;;5034641;28;20228;-91
2022/11/08 04:55:14;;;;;;;3.97;2.17;;;15.20;86.10;;;;;;5035402;28;20640;-92
2022/11/08 04:57:46;;;;;;;4.13;2.03;;;15.10;86.90;;;;;;5026853;28;20228;-93
2022/11/08 05:00:20;;;;;;;10.27;4.07;;;15.10;85.60;;;;;;5035033;28;20204;-93
2022/11/08 05:02:53;;;;;;;5.87;2.47;;;15.20;85.30;;;;;;5032179;28;20202;-93
2022/11/08 05:05:22;;;;;;;6.93;2.17;;;15.20;86.00;;;;;;5032414;28;20212;-93
2022/11/08 05:07:50;;;;;;;10.87;3.80;;;15.20;85.70;;;;;;5033248;28;20201;-93
2022/11/08 05:10:21;;;;;;;12.13;4.33;;;15.20;85.20;;;;;;5007068;28;20206;-93
2022/11/08 05:12:55;;;;;;;7.40;3.20;;;15.20;85.20;;;;;;5013028;28;20273;-94
2022/11/08 05:15:27;;;;;;;12.13;3.73;;;15.20;85.10;;;;;;5017299;28;20239;-94
2022/11/08 05:17:54;;;;;;;13.80;4.10;;;15.20;84.70;;;;;;5032936;28;20219;-93
2022/11/08 05:23:25;;;;;;;10.40;3.50;;;15.20;84.50;;;;;;5007738;28;20254;-93
2022/11/08 05:25:57;;;;;;;9.77;3.43;;;15.20;83.90;;;;;;5009579;28;20205;-95
2022/11/08 05:28:29;;;;;;;5.47;2.37;;;15.20;83.80;;;;;;5014434;28;20716;-94
2022/11/08 05:31:01;;;;;;;9.67;3.27;;;15.20;83.50;;;;;;5012640;28;20215;-93
2022/11/08 05:33:36;;;;;;;8.37;2.73;;;15.20;83.60;;;;;;5027434;28;20231;-93
2022/11/08 05:36:06;;;;;;;7.00;2.67;;;15.20;82.80;;;;;;5027963;28;20226;-93
2022/11/08 05:38:47;;;;;;;7.07;3.03;;;15.20;83.60;;;;;;5008578;28;20220;-94
2022/11/08 05:41:17;;;;;;;9.10;3.43;;;15.30;82.90;;;;;;5024503;28;20351;-93
2022/11/08 05:43:48;;;;;;;9.50;3.40;;;15.20;83.20;;;;;;5005130;28;20222;-94
2022/11/08 05:46:18;;;;;;;11.63;2.90;;;15.20;82.80;;;;;;5022957;28;20205;-94
2022/11/08 05:48:49;;;;;;;5.73;2.33;;;15.20;82.70;;;;;;5026296;28;20210;-95
2022/11/08 05:51:21;;;;;;;9.60;3.43;;;15.30;83.20;;;;;;5014278;28;20219;-94
2022/11/08 05:53:54;;;;;;;9.23;3.47;;;15.20;82.60;;;;;;5010530;28;20327;-95
2022/11/08 05:56:26;;;;;;;10.33;3.80;;;15.20;82.70;;;;;;5013238;28;20201;-94
2022/11/08 05:58:55;;;;;;;7.43;2.63;;;15.20;82.60;;;;;;5012605;28;20208;-94
2022/11/08 06:01:24;;;;;;;7.97;3.13;;;15.20;82.60;;;;;;5012935;28;20257;-95
2022/11/08 06:03:54;;;;;;;11.17;4.07;;;15.20;82.60;;;;;;5004338;28;20209;-93
2022/11/08 06:06:29;;;;;;;9.83;3.50;;;15.20;82.50;;;;;;5014068;28;20201;-96
2022/11/08 06:08:58;;;;;;;11.13;3.03;;;15.20;82.20;;;;;;5013606;28;20259;-94
2022/11/08 06:11:28;;;;;;;10.37;3.40;;;15.20;82.50;;;;;;5012713;28;20911;-96
2022/11/08 06:13:59;;;;;;;8.97;3.43;;;15.20;81.60;;;;;;5013363;28;20720;-95
2022/11/08 06:16:27;;;;;;;7.80;2.73;;;15.20;82.00;;;;;;5013511;28;20201;-95
2022/11/08 06:18:57;;;;;;;9.97;3.87;;;15.20;82.50;;;;;;5011717;28;20272;-94
2022/11/08 06:21:26;;;;;;;7.93;3.27;;;15.20;81.90;;;;;;5011492;28;20215;-93
2022/11/08 06:23:54;;;;;;;8.77;2.97;;;15.20;82.20;;;;;;5011559;28;20209;-93
2022/11/08 06:26:22;;;;;;;9.63;3.37;;;15.20;82.20;;;;;;4999417;28;20276;-94
2022/11/08 06:28:50;;;;;;;10.67;3.90;;;15.10;82.00;;;;;;5015435;28;20213;-95
2022/11/08 06:31:20;;;;;;;7.07;2.70;;;15.20;82.40;;;;;;5009066;28;20215;-94
2022/11/08 06:33:47;;;;;;;8.17;2.97;;;15.10;81.70;;;;;;5029451;28;20267;-95
2022/11/08 06:36:20;;;;;;;9.83;2.70;;;15.20;82.20;;;;;;5022281;28;20210;-95
2022/11/08 06:38:47;;;;;;;6.17;2.80;;;15.20;81.40;;;;;;5015688;28;20201;-93
2022/11/08 06:41:22;;;;;;;11.23;3.67;;;15.10;81.90;;;;;;5015665;28;20205;-95
2022/11/08 06:43:50;;;;;;;5.67;2.60;;;15.10;81.10;;;;;;5014215;28;20219;-94
2022/11/08 06:46:19;;;;;;;6.13;2.47;;;15.20;81.60;;;;;;5015566;28;20239;-94
2022/11/08 06:48:48;;;;;;;11.03;3.80;;;15.10;81.40;;;;;;5013047;28;20257;-94
2022/11/08 06:51:17;;;;;;;13.33;4.40;;;15.10;81.60;;;;;;5014936;28;20601;-93
2022/11/08 06:53:46;;;;;;;15.23;4.60;;;15.10;81.40;;;;;;5012701;28;20278;-94
2022/11/08 06:56:17;;;;;;;11.37;4.40;;;15.20;81.40;;;;;;5014344;28;20209;-94
2022/11/08 06:58:46;;;;;;;7.77;3.27;;;15.10;81.30;;;;;;5011810;28;20668;-94
2022/11/08 07:01:13;;;;;;;11.23;4.30;;;15.10;81.30;;;;;;5002529;28;20261;-91
2022/11/08 07:03:41;;;;;;;10.07;3.77;;;15.20;81.60;;;;;;4999095;28;20644;-93
2022/11/08 07:06:22;;;;;;;7.37;3.07;;;15.20;81.30;;;;;;5016340;28;20293;-96
2022/11/08 07:08:49;;;;;;;13.33;4.20;;;15.20;81.00;;;;;;5006499;28;20210;-92
2022/11/08 07:11:19;;;;;;;12.67;4.37;;;15.20;81.50;;;;;;5008527;28;20675;-93
2022/11/08 07:13:47;;;;;;;13.60;3.70;;;15.20;81.40;;;;;;5008456;28;20976;-92
2022/11/08 07:16:14;;;;;;;11.63;4.37;;;15.20;81.20;;;;;;5005034;28;20205;-91
2022/11/08 07:18:43;;;;;;;11.67;4.13;;;15.30;81.30;;;;;;5010072;28;20229;-92
2022/11/08 07:21:11;;;;;;;11.87;4.57;;;15.30;80.80;;;;;;5010694;28;20264;-92
2022/11/08 07:23:42;;;;;;;8.60;3.37;;;15.30;80.50;;;;;;5016045;28;20206;-94
2022/11/08 07:26:12;;;;;;;11.20;4.20;;;15.30;80.60;;;;;;5021294;28;20187;-93
2022/11/08 07:28:39;;;;;;;11.17;3.93;;;15.30;80.40;;;;;;5023574;28;20497;-94
2022/11/08 07:31:11;;;;;;;3.77;2.00;;;15.40;80.40;;;;;;5018370;28;20266;-93
2022/11/08 07:33:39;;;;;;;11.93;3.90;;;15.40;80.20;;;;;;5014049;28;20679;-93
2022/11/08 07:36:08;;;;;;;10.30;3.63;;;15.40;80.00;;;;;;5010137;28;20803;-92
2022/11/08 07:38:38;;;;;;;11.10;3.80;;;15.40;79.70;;;;;;5008992;28;20211;-93
2022/11/08 07:41:06;;;;;;;10.10;3.67;;;15.40;79.90;;;;;;5008965;28;20219;-93
2022/11/08 07:43:35;;;;;;;13.27;3.83;;;15.50;80.10;;;;;;4999164;28;20298;-92
2022/11/08 07:46:02;;;;;;;11.13;3.73;;;15.50;80.00;;;;;;4995735;28;20752;-93
2022/11/08 07:48:30;;;;;;;16.83;5.20;;;15.50;80.00;;;;;;5007812;28;20260;-92
2022/11/08 07:51:03;;;;;;;11.57;4.13;;;15.50;79.80;;;;;;5008831;28;20220;-92
2022/11/08 07:53:37;;;;;;;12.50;4.50;;;15.50;79.70;;;;;;5006779;28;20233;-93
2022/11/08 07:56:06;;;;;;;9.30;3.60;;;15.50;79.40;;;;;;4990400;28;20757;-93
2022/11/08 07:58:35;;;;;;;8.80;3.70;;;15.60;79.50;;;;;;4993687;28;20287;-92
2022/11/08 08:01:03;;;;;;;8.90;3.43;;;15.60;78.70;;;;;;5008482;28;20202;-92
2022/11/08 08:03:31;;;;;;;16.50;5.67;;;15.60;78.90;;;;;;5008599;28;20624;-92
2022/11/08 08:05:58;;;;;;;11.00;3.70;;;15.60;78.70;;;;;;5009492;28;20220;-92
2022/11/08 08:08:26;;;;;;;18.83;6.03;;;15.60;78.80;;;;;;5009153;28;20209;-92
2022/11/08 08:10:59;;;;;;;11.37;3.90;;;15.60;79.10;;;;;;5002692;28;20216;-92
2022/11/08 08:13:29;;;;;;;14.03;4.57;;;15.60;78.40;;;;;;5000295;28;20231;-92
2022/11/08 08:15:59;;;;;;;15.17;5.27;;;15.60;78.40;;;;;;5007570;28;20239;-91
2022/11/08 08:18:28;;;;;;;19.27;7.17;;;15.60;78.40;;;;;;5006884;28;20290;-92
2022/11/08 08:20:56;;;;;;;10.10;3.73;;;15.70;78.50;;;;;;5008705;28;20223;-90
2022/11/08 08:23:24;;;;;;;11.13;4.13;;;15.60;78.00;;;;;;5007953;28;20638;-92
2022/11/08 08:25:52;;;;;;;8.30;3.20;;;15.70;78.10;;;;;;5008790;28;20210;-90
2022/11/08 08:28:20;;;;;;;12.10;4.17;;;15.70;78.20;;;;;;5008861;28;20213;-91
2022/11/08 08:30:52;;;;;;;11.43;3.67;;;15.80;77.90;;;;;;5009024;28;20216;-93
2022/11/08 08:33:19;;;;;;;12.77;4.70;;;15.70;77.90;;;;;;5016962;28;20248;-92
2022/11/08 08:35:47;;;;;;;10.57;4.53;;;15.70;78.40;;;;;;5018339;28;20238;-91
2022/11/08 08:38:16;;;;;;;10.23;3.03;;;15.70;77.80;;;;;;5026485;28;20230;-92
2022/11/08 08:40:46;;;;;;;8.37;3.57;;;15.80;78.10;;;;;;5020628;28;20275;-92
2022/11/08 08:43:14;;;;;;;12.07;4.10;;;15.80;77.90;;;;;;5013153;28;20217;-92
2022/11/08 08:45:45;;;;;;;11.90;4.20;;;15.90;78.00;;;;;;5011412;28;20281;-92
2022/11/08 08:48:16;;;;;;;12.37;4.00;;;15.90;78.00;;;;;;5012265;28;20218;-92
2022/11/08 08:50:47;;;;;;;13.07;4.70;;;15.80;77.90;;;;;;5011204;28;20210;-93
2022/11/08 08:53:14;;;;;;;9.77;3.93;;;15.80;78.00;;;;;;5011546;28;20312;-93
2022/11/08 08:55:41;;;;;;;17.67;3.93;;;15.90;77.90;;;;;;5010962;28;20317;-91
2022/11/08 08:58:10;;;;;;;14.10;4.30;;;15.90;78.00;;;;;;5012023;28;20215;-92
2022/11/08 09:00:42;;;;;;;11.43;4.30;;;16.00;77.80;;;;;;5012170;28;20209;-92
2022/11/08 09:03:15;;;;;;;9.63;3.87;;;16.00;77.90;;;;;;5011762;28;20234;-91
2022/11/08 09:05:45;;;;;;;18.87;4.47;;;16.00;77.50;;;;;;5005232;28;20745;-91
2022/11/08 09:08:18;;;;;;;8.47;2.40;;;16.00;77.70;;;;;;5003639;28;20228;-92
2022/11/08 09:10:46;;;;;;;11.83;3.00;;;16.00;77.30;;;;;;5027851;28;20296;-91
2022/11/08 09:13:13;;;;;;;6.57;2.30;;;16.10;77.70;;;;;;5029462;28;20288;-93
2022/11/08 09:15:40;;;;;;;9.73;3.33;;;16.10;77.70;;;;;;5028387;28;20270;-91
2022/11/08 09:18:11;;;;;;;6.03;2.90;;;16.10;77.60;;;;;;5014272;28;20209;-91
2022/11/08 09:20:42;;;;;;;9.67;3.90;;;16.10;77.50;;;;;;5003284;28;20284;-91
2022/11/08 09:23:15;;;;;;;7.53;2.77;;;16.10;77.60;;;;;;5025801;28;20209;-90
2022/11/08 09:25:47;;;;;;;8.63;3.30;;;16.20;77.30;;;;;;5023123;28;20588;-92
2022/11/08 09:28:14;;;;;;;7.60;2.50;;;16.20;77.30;;;;;;5020986;28;20205;-93
2022/11/08 09:30:43;;;;;;;14.50;4.43;;;16.20;77.20;;;;;;5021147;28;20220;-93
2022/11/08 09:33:13;;;;;;;15.57;4.50;;;16.20;77.30;;;;;;5028486;28;20412;-93
2022/11/08 09:35:45;;;;;;;8.20;3.30;;;16.30;77.40;;;;;;5014505;28;20256;-93
2022/11/08 09:38:13;;;;;;;7.93;3.27;;;16.30;77.60;;;;;;4994265;28;20291;-93
2022/11/08 09:40:49;;;;;;;9.60;3.23;;;16.30;77.50;;;;;;5010899;28;20206;-92
2022/11/08 09:43:55;;;;;;;10.00;3.77;;;16.30;77.70;;;;;;5014454;28;20223;-92
2022/11/08 09:46:31;;;;;;;10.03;3.57;;;16.40;78.10;;;;;;5015349;28;20210;-92
2022/11/08 09:49:10;;;;;;;10.37;3.97;;;16.50;77.80;;;;;;5013308;28;20201;-92
2022/11/08 09:51:41;;;;;;;22.47;4.67;;;16.50;77.70;;;;;;5022028;28;20215;-92
2022/11/08 09:54:33;;;;;;;7.47;3.53;;;16.60;78.40;;;;;;5024088;28;20639;-91
2022/11/08 09:57:04;;;;;;;8.10;3.23;;;16.70;77.80;;;;;;5017513;28;20212;-91
2022/11/08 09:59:40;;;;;;;12.13;4.23;;;16.80;78.10;;;;;;5011885;28;20289;-91
2022/11/08 10:02:15;;;;;;;11.67;4.13;;;16.90;78.00;;;;;;5010762;28;20204;-93
2022/11/08 10:04:49;;;;;;;11.60;3.73;;;17.00;77.80;;;;;;5006335;28;20226;-92
2022/11/08 10:07:29;;;;;;;9.73;3.87;;;17.10;77.50;;;;;;5011251;28;20215;-93
2022/11/08 10:10:18;;;;;;;8.60;3.27;;;17.20;76.80;;;;;;5001583;28;20206;-92
2022/11/08 10:12:57;;;;;;;11.33;3.93;;;17.40;76.70;;;;;;4999742;28;20208;-91
2022/11/08 10:15:35;;;;;;;14.47;4.00;;;17.50;76.60;;;;;;5009127;28;20709;-93
2022/11/08 10:18:27;;;;;;;9.40;3.97;;;17.50;76.00;;;;;;5010917;28;20210;-91
2022/11/08 10:21:14;;;;;;;13.40;4.20;;;17.60;75.50;;;;;;5013974;28;20220;-92
2022/11/08 10:23:56;;;;;;;12.00;4.27;;;17.70;75.40;;;;;;5020584;28;20211;-92
2022/11/08 10:26:31;;;;;;;7.63;3.60;;;17.80;74.70;;;;;;5001979;28;20228;-92
2022/11/08 10:29:03;;;;;;;8.77;3.00;;;17.80;74.60;;;;;;5018090;28;20210;-91
2022/11/08 10:31:33;;;;;;;15.03;4.73;;;17.90;74.80;;;;;;5002507;28;20207;-90
2022/11/08 10:34:09;;;;;;;10.27;4.10;;;17.90;74.70;;;;;;5016877;28;20246;-90
2022/11/08 10:36:40;;;;;;;10.20;3.83;;;17.90;73.80;;;;;;5014809;28;20996;-93
2022/11/08 10:39:16;;;;;;;9.47;3.87;;;18.00;74.30;;;;;;5013366;28;20204;-93
2022/11/08 10:41:48;;;;;;;12.10;3.97;;;18.00;74.00;;;;;;5012424;28;20560;-91
2022/11/08 10:44:18;;;;;;;8.63;3.43;;;18.00;74.10;;;;;;5003797;28;20212;-93
2022/11/08 10:46:52;;;;;;;10.23;3.67;;;18.10;74.30;;;;;;5017653;28;20259;-92
2022/11/08 10:49:22;;;;;;;8.20;3.10;;;18.10;74.00;;;;;;5012805;28;20209;-92
2022/11/08 10:51:55;;;;;;;8.30;3.57;;;18.20;74.10;;;;;;5017103;28;20208;-93
2022/11/08 10:54:51;;;;;;;6.03;2.67;;;18.20;74.10;;;;;;5015156;28;20229;-92
2022/11/08 10:57:25;;;;;;;8.37;3.70;;;18.30;74.40;;;;;;5020788;28;20204;-92
2022/11/08 10:59:55;;;;;;;8.73;3.87;;;18.40;74.90;;;;;;5014236;28;20216;-90
2022/11/08 11:02:35;;;;;;;15.03;5.00;;;18.40;74.00;;;;;;5011612;28;20216;-91
2022/11/08 11:05:26;;;;;;;9.97;3.57;;;18.50;73.30;;;;;;5002097;28;20216;-91
2022/11/08 11:08:16;;;;;;;8.83;3.50;;;18.60;73.50;;;;;;4992941;28;20773;-90
2022/11/08 11:10:46;;;;;;;13.07;4.30;;;18.60;73.50;;;;;;5007180;28;20216;-89
2022/11/08 11:13:23;;;;;;;10.93;3.73;;;18.70;73.00;;;;;;5010335;28;20224;-90
2022/11/08 11:15:55;;;;;;;11.07;3.13;;;18.70;73.30;;;;;;5010647;28;20657;-91
2022/11/08 11:18:29;;;;;;;9.57;3.43;;;18.80;72.90;;;;;;5011049;28;20240;-90
2022/11/08 11:21:07;;;;;;;14.23;4.73;;;18.90;72.40;;;;;;4993267;28;20659;-91
2022/11/08 11:23:47;;;;;;;10.73;4.23;;;18.90;71.80;;;;;;5009720;28;20200;-89
2022/11/08 11:26:33;;;;;;;9.30;3.33;;;19.00;71.50;;;;;;4990150;28;20238;-90
2022/11/08 11:29:15;;;;;;;8.43;3.10;;;19.00;70.90;;;;;;4994047;28;20209;-92
2022/11/08 11:31:45;;;;;;;9.17;3.23;;;19.00;71.20;;;;;;5011282;28;20212;-91
2022/11/08 11:35:06;;;;;;;9.33;3.63;;;19.00;71.40;;;;;;5008093;28;20235;-90
2022/11/08 11:37:43;;;;;;;10.03;3.23;;;19.00;70.90;;;;;;5009612;28;20203;-91
2022/11/08 11:40:39;;;;;;;8.03;3.37;;;19.00;71.50;;;;;;5019540;28;20236;-93
2022/11/08 11:43:13;;;;;;;11.87;3.77;;;19.00;71.40;;;;;;5010961;28;20274;-92
2022/11/08 11:45:46;;;;;;;5.43;2.83;;;19.00;71.50;;;;;;5015253;28;20204;-90
2022/11/08 11:48:18;;;;;;;9.17;3.10;;;18.90;71.30;;;;;;5012654;28;20208;-92
2022/11/08 11:50:49;;;;;;;8.37;3.67;;;18.90;71.10;;;;;;5010976;28;20205;-92
2022/11/08 11:53:23;;;;;;;9.27;3.70;;;18.90;71.40;;;;;;5003353;28;20265;-91
2022/11/08 11:56:17;;;;;;;11.97;3.67;;;18.90;71.40;;;;;;5008984;28;20234;-91
2022/11/08 11:59:35;;;;;;;13.87;4.57;;;18.90;72.00;;;;;;5009301;28;20211;-93
2022/11/08 12:02:56;;;;;;;8.47;3.47;;;19.00;71.90;;;;;;5008617;28;20212;-90
2022/11/08 12:05:38;;;;;;;8.60;3.23;;;19.00;71.60;;;;;;4955764;28;20211;-92
2022/11/08 12:08:22;;;;;;;9.17;3.40;;;19.00;71.20;;;;;;4934352;29;20214;-89
2022/11/08 12:11:07;;;;;;;9.83;3.10;;;19.00;71.40;;;;;;4982476;28;20216;-89
2022/11/08 12:13:52;;;;;;;9.07;3.30;;;19.10;71.70;;;;;;5010400;28;20236;-89
2022/11/08 12:16:25;;;;;;;8.67;3.10;;;19.20;71.90;;;;;;5000346;28;20248;-90
2022/11/08 12:19:12;;;;;;;12.17;4.70;;;19.20;71.80;;;;;;5010673;28;20247;-89
2022/11/08 12:21:56;;;;;;;10.30;3.47;;;19.30;71.60;;;;;;5016111;28;20205;-89
2022/11/08 12:24:46;;;;;;;10.83;3.70;;;19.30;71.70;;;;;;5015146;28;20201;-90
2022/11/08 12:27:22;;;;;;;8.30;3.60;;;19.30;71.00;;;;;;5021300;28;20226;-90
2022/11/08 12:30:00;;;;;;;10.70;3.83;;;19.40;71.40;;;;;;5017107;28;20221;-89
2022/11/08 12:32:42;;;;;;;10.93;4.30;;;19.50;71.30;;;;;;5016028;28;20228;-91
2022/11/08 12:35:22;;;;;;;11.03;4.13;;;19.50;71.70;;;;;;5004573;28;20227;-88
2022/11/08 12:38:15;;;;;;;5.63;2.60;;;19.60;71.90;;;;;;5023115;28;20270;-91
2022/11/08 12:40:49;;;;;;;10.57;3.30;;;19.70;71.10;;;;;;5012049;28;20233;-89
2022/11/08 12:43:30;;;;;;;8.87;3.70;;;19.70;70.70;;;;;;5013501;28;20224;-90
2022/11/08 12:46:08;;;;;;;12.13;4.30;;;19.80;70.10;;;;;;5011264;28;20256;-90
2022/11/08 12:49:10;;;;;;;11.37;4.10;;;19.80;69.60;;;;;;5011704;28;20213;-89
2022/11/08 12:51:52;;;;;;;10.33;3.67;;;19.80;69.20;;;;;;4993053;28;20190;-89
2022/11/08 12:54:30;;;;;;;11.23;4.27;;;19.80;68.90;;;;;;5000692;28;20237;-90
2022/11/08 12:57:01;;;;;;;10.70;4.23;;;19.80;68.70;;;;;;5008964;28;20211;-90
2022/11/08 12:59:32;;;;;;;10.77;3.37;;;19.70;69.50;;;;;;5011318;28;20303;-90
2022/11/08 13:02:01;;;;;;;8.50;3.63;;;19.70;69.00;;;;;;5011982;28;20627;-89
2022/11/08 13:04:51;;;;;;;10.23;4.03;;;19.60;69.00;;;;;;5011032;28;20668;-91
2022/11/08 13:07:25;;;;;;;10.17;3.40;;;19.60;68.90;;;;;;5011896;28;20227;-91
2022/11/08 13:10:02;;;;;;;14.03;4.83;;;19.50;69.10;;;;;;5011563;28;20211;-90
2022/11/08 13:12:40;;;;;;;11.37;3.57;;;19.50;69.20;;;;;;5012677;28;20344;-91
2022/11/08 13:15:17;;;;;;;10.13;3.50;;;19.50;69.50;;;;;;5009348;28;20267;-91
2022/11/08 13:18:25;;;;;;;11.33;3.53;;;19.40;69.50;;;;;;5003603;28;20224;-91
2022/11/08 13:20:52;;;;;;;8.93;3.53;;;19.40;69.80;;;;;;5011976;28;20212;-91
2022/11/08 13:23:28;;;;;;;11.23;4.07;;;19.40;69.80;;;;;;5012329;28;20247;-90
2022/11/08 13:26:10;;;;;;;9.33;3.43;;;19.40;69.90;;;;;;5011779;28;20205;-90
2022/11/08 13:28:44;;;;;;;11.20;3.63;;;19.50;70.30;;;;;;5012207;28;20225;-91
2022/11/08 13:31:32;;;;;;;10.13;3.50;;;19.50;70.00;;;;;;5015507;28;20858;-91
2022/11/08 13:34:26;;;;;;;9.77;3.73;;;19.40;70.10;;;;;;5020643;28;20200;-91
2022/11/08 13:37:12;;;;;;;10.47;3.40;;;19.40;70.10;;;;;;5015045;28;20268;-91
2022/11/08 13:40:08;;;;;;;15.57;4.50;;;19.50;70.30;;;;;;5011407;28;20201;-89
2022/11/08 13:42:55;;;;;;;7.97;3.37;;;19.50;70.40;;;;;;5004231;28;20209;-92